sensor_id;sensor_type;location;lat;lon;timestamp;P1;durP1;ratioP1;P2;durP2;ratioP2
16139;SDS011;8175;49.326;12.690;2023-07-13T00:01:47;9.33;;;8.20;;
16139;SDS011;8175;49.326;12.690;2023-07-13T00:04:15;9.03;;;8.13;;
16139;SDS011;8175;49.326;12.690;2023-07-13T00:06:42;8.13;;;7.27;;
16139;SDS011;8175;49.326;12.690;2023-07-13T00:09:12;10.80;;;8.30;;
16139;SDS011;8175;49.326;12.690;2023-07-13T00:11:40;8.73;;;7.83;;
16139;SDS011;8175;49.326;12.690;2023-07-13T00:14:06;8.03;;;7.23;;
16139;SDS011;8175;49.326;12.690;2023-07-13T00:16:33;8.33;;;7.20;;
16139;SDS011;8175;49.326;12.690;2023-07-13T00:19:00;8.00;;;7.20;;
16139;SDS011;8175;49.326;12.690;2023-07-13T00:21:26;7.60;;;6.97;;
16139;SDS011;8175;49.326;12.690;2023-07-13T00:23:52;8.20;;;7.30;;
16139;SDS011;8175;49.326;12.690;2023-07-13T00:26:18;7.13;;;6.43;;
16139;SDS011;8175;49.326;12.690;2023-07-13T00:28:43;7.67;;;6.87;;
16139;SDS011;8175;49.326;12.690;2023-07-13T00:31:10;10.17;;;7.20;;
16139;SDS011;8175;49.326;12.690;2023-07-13T00:33:39;7.70;;;6.90;;
16139;SDS011;8175;49.326;12.690;2023-07-13T00:36:05;8.47;;;7.53;;
16139;SDS011;8175;49.326;12.690;2023-07-13T00:38:31;8.07;;;7.27;;
16139;SDS011;8175;49.326;12.690;2023-07-13T00:40:56;7.37;;;6.77;;
16139;SDS011;8175;49.326;12.690;2023-07-13T00:43:23;8.00;;;6.77;;
16139;SDS011;8175;49.326;12.690;2023-07-13T00:48:21;7.30;;;6.60;;
16139;SDS011;8175;49.326;12.690;2023-07-13T00:50:50;8.03;;;6.93;;
16139;SDS011;8175;49.326;12.690;2023-07-13T00:53:18;7.27;;;6.60;;
16139;SDS011;8175;49.326;12.690;2023-07-13T03:56:59;6.97;;;5.60;;
16139;SDS011;8175;49.326;12.690;2023-07-13T03:59:25;6.10;;;5.50;;
16139;SDS011;8175;49.326;12.690;2023-07-13T04:01:50;7.87;;;6.20;;
16139;SDS011;8175;49.326;12.690;2023-07-13T04:04:16;10.33;;;5.87;;
16139;SDS011;8175;49.326;12.690;2023-07-13T04:06:41;7.40;;;6.03;;
16139;SDS011;8175;49.326;12.690;2023-07-13T04:09:07;7.10;;;4.93;;
16139;SDS011;8175;49.326;12.690;2023-07-13T04:11:34;5.97;;;4.77;;
16139;SDS011;8175;49.326;12.690;2023-07-13T04:14:01;6.00;;;5.30;;
16139;SDS011;8175;49.326;12.690;2023-07-13T04:16:27;5.90;;;5.40;;
16139;SDS011;8175;49.326;12.690;2023-07-13T04:18:54;6.97;;;6.00;;
16139;SDS011;8175;49.326;12.690;2023-07-13T04:21:24;5.77;;;5.13;;
16139;SDS011;8175;49.326;12.690;2023-07-13T04:23:52;6.47;;;5.03;;
16139;SDS011;8175;49.326;12.690;2023-07-13T04:26:17;5.90;;;5.00;;
16139;SDS011;8175;49.326;12.690;2023-07-13T04:28:46;5.70;;;5.13;;
16139;SDS011;8175;49.326;12.690;2023-07-13T04:31:12;5.60;;;5.00;;
16139;SDS011;8175;49.326;12.690;2023-07-13T04:33:38;4.97;;;4.57;;
16139;SDS011;8175;49.326;12.690;2023-07-13T04:36:03;6.03;;;5.00;;
16139;SDS011;8175;49.326;12.690;2023-07-13T04:38:30;6.10;;;4.77;;
16139;SDS011;8175;49.326;12.690;2023-07-13T04:40:58;5.27;;;4.87;;
16139;SDS011;8175;49.326;12.690;2023-07-13T04:43:25;5.37;;;4.40;;
16139;SDS011;8175;49.326;12.690;2023-07-13T04:45:52;5.60;;;4.40;;
16139;SDS011;8175;49.326;12.690;2023-07-13T04:48:18;4.40;;;4.00;;
16139;SDS011;8175;49.326;12.690;2023-07-13T04:50:44;7.40;;;4.43;;
16139;SDS011;8175;49.326;12.690;2023-07-13T04:53:11;4.80;;;4.10;;
16139;SDS011;8175;49.326;12.690;2023-07-13T04:55:37;4.70;;;4.27;;
16139;SDS011;8175;49.326;12.690;2023-07-13T04:58:03;4.83;;;4.07;;
16139;SDS011;8175;49.326;12.690;2023-07-13T05:00:29;4.90;;;4.33;;
16139;SDS011;8175;49.326;12.690;2023-07-13T05:02:56;4.77;;;4.37;;
16139;SDS011;8175;49.326;12.690;2023-07-13T05:05:23;5.20;;;3.43;;
16139;SDS011;8175;49.326;12.690;2023-07-13T05:07:49;4.43;;;3.83;;
16139;SDS011;8175;49.326;12.690;2023-07-13T05:10:15;4.13;;;3.73;;
16139;SDS011;8175;49.326;12.690;2023-07-13T05:12:41;6.10;;;3.63;;
16139;SDS011;8175;49.326;12.690;2023-07-13T05:15:07;4.87;;;3.90;;
16139;SDS011;8175;49.326;12.690;2023-07-13T05:17:33;5.27;;;3.60;;
16139;SDS011;8175;49.326;12.690;2023-07-13T05:19:58;4.93;;;3.90;;
16139;SDS011;8175;49.326;12.690;2023-07-13T05:22:24;4.03;;;3.63;;
16139;SDS011;8175;49.326;12.690;2023-07-13T05:24:50;4.80;;;3.60;;
16139;SDS011;8175;49.326;12.690;2023-07-13T05:27:15;4.50;;;3.67;;
16139;SDS011;8175;49.326;12.690;2023-07-13T05:29:41;4.57;;;2.93;;
16139;SDS011;8175;49.326;12.690;2023-07-13T05:32:07;4.60;;;3.47;;
16139;SDS011;8175;49.326;12.690;2023-07-13T05:34:32;4.33;;;3.30;;
16139;SDS011;8175;49.326;12.690;2023-07-13T05:36:58;4.57;;;3.63;;
16139;SDS011;8175;49.326;12.690;2023-07-13T05:39:24;4.00;;;3.30;;
16139;SDS011;8175;49.326;12.690;2023-07-13T05:41:51;4.60;;;4.00;;
16139;SDS011;8175;49.326;12.690;2023-07-13T05:44:16;3.87;;;3.47;;
16139;SDS011;8175;49.326;12.690;2023-07-13T05:46:43;5.73;;;3.50;;
16139;SDS011;8175;49.326;12.690;2023-07-13T05:49:09;5.47;;;4.20;;
16139;SDS011;8175;49.326;12.690;2023-07-13T05:51:35;4.37;;;3.80;;
16139;SDS011;8175;49.326;12.690;2023-07-13T05:54:00;4.50;;;3.97;;
16139;SDS011;8175;49.326;12.690;2023-07-13T05:56:26;3.97;;;3.67;;
16139;SDS011;8175;49.326;12.690;2023-07-13T05:58:51;4.20;;;3.63;;
16139;SDS011;8175;49.326;12.690;2023-07-13T06:01:17;4.50;;;4.10;;
16139;SDS011;8175;49.326;12.690;2023-07-13T06:03:45;4.63;;;3.50;;
16139;SDS011;8175;49.326;12.690;2023-07-13T06:06:11;3.73;;;3.40;;
16139;SDS011;8175;49.326;12.690;2023-07-13T06:08:37;5.43;;;3.47;;
16139;SDS011;8175;49.326;12.690;2023-07-13T06:11:22;5.40;;;4.27;;
16139;SDS011;8175;49.326;12.690;2023-07-13T06:13:50;3.63;;;3.33;;
16139;SDS011;8175;49.326;12.690;2023-07-13T06:16:16;7.33;;;3.33;;
16139;SDS011;8175;49.326;12.690;2023-07-13T06:18:42;4.00;;;3.40;;
16139;SDS011;8175;49.326;12.690;2023-07-13T06:21:12;3.87;;;3.43;;
16139;SDS011;8175;49.326;12.690;2023-07-13T06:23:43;3.57;;;3.27;;
16139;SDS011;8175;49.326;12.690;2023-07-13T06:26:09;5.40;;;3.37;;
16139;SDS011;8175;49.326;12.690;2023-07-13T06:28:35;3.80;;;3.50;;
16139;SDS011;8175;49.326;12.690;2023-07-13T06:31:01;4.23;;;3.30;;
16139;SDS011;8175;49.326;12.690;2023-07-13T06:33:30;4.43;;;3.37;;
16139;SDS011;8175;49.326;12.690;2023-07-13T06:35:55;2.97;;;2.67;;
16139;SDS011;8175;49.326;12.690;2023-07-13T06:38:21;3.97;;;2.63;;
16139;SDS011;8175;49.326;12.690;2023-07-13T06:40:47;3.13;;;2.83;;
16139;SDS011;8175;49.326;12.690;2023-07-13T06:43:12;3.87;;;2.80;;
16139;SDS011;8175;49.326;12.690;2023-07-13T06:45:45;3.00;;;2.70;;
16139;SDS011;8175;49.326;12.690;2023-07-13T06:48:14;4.43;;;2.30;;
16139;SDS011;8175;49.326;12.690;2023-07-13T06:50:41;3.43;;;2.40;;
16139;SDS011;8175;49.326;12.690;2023-07-13T06:53:10;7.83;;;2.93;;
16139;SDS011;8175;49.326;12.690;2023-07-13T06:55:37;2.67;;;2.43;;
16139;SDS011;8175;49.326;12.690;2023-07-13T06:58:03;3.13;;;2.67;;
16139;SDS011;8175;49.326;12.690;2023-07-13T07:00:29;3.00;;;2.50;;
16139;SDS011;8175;49.326;12.690;2023-07-13T07:02:55;5.70;;;2.80;;
16139;SDS011;8175;49.326;12.690;2023-07-13T07:05:20;2.90;;;2.37;;
16139;SDS011;8175;49.326;12.690;2023-07-13T07:07:50;3.07;;;2.03;;
16139;SDS011;8175;49.326;12.690;2023-07-13T07:10:17;3.33;;;2.43;;
16139;SDS011;8175;49.326;12.690;2023-07-13T07:12:46;2.90;;;2.67;;
16139;SDS011;8175;49.326;12.690;2023-07-13T07:15:12;2.23;;;2.00;;
16139;SDS011;8175;49.326;12.690;2023-07-13T07:17:38;3.23;;;2.40;;
16139;SDS011;8175;49.326;12.690;2023-07-13T07:20:04;2.70;;;2.50;;
16139;SDS011;8175;49.326;12.690;2023-07-13T07:22:30;2.60;;;2.40;;
16139;SDS011;8175;49.326;12.690;2023-07-13T07:24:56;3.28;;;2.40;;
16139;SDS011;8175;49.326;12.690;2023-07-13T07:27:23;2.70;;;2.50;;
16139;SDS011;8175;49.326;12.690;2023-07-13T07:29:49;4.45;;;2.50;;
16139;SDS011;8175;49.326;12.690;2023-07-13T07:32:14;4.20;;;3.15;;
16139;SDS011;8175;49.326;12.690;2023-07-13T07:34:40;2.70;;;2.30;;
16139;SDS011;8175;49.326;12.690;2023-07-13T07:37:06;2.70;;;2.33;;
16139;SDS011;8175;49.326;12.690;2023-07-13T07:39:32;2.53;;;2.30;;
16139;SDS011;8175;49.326;12.690;2023-07-13T07:41:57;2.85;;;2.00;;
16139;SDS011;8175;49.326;12.690;2023-07-13T07:44:23;4.07;;;1.90;;
16139;SDS011;8175;49.326;12.690;2023-07-13T07:46:49;3.67;;;2.30;;
16139;SDS011;8175;49.326;12.690;2023-07-13T07:49:15;3.88;;;2.40;;
16139;SDS011;8175;49.326;12.690;2023-07-13T07:51:40;2.30;;;2.10;;
16139;SDS011;8175;49.326;12.690;2023-07-13T07:54:06;2.05;;;1.80;;
16139;SDS011;8175;49.326;12.690;2023-07-13T07:56:32;2.05;;;1.83;;
16139;SDS011;8175;49.326;12.690;2023-07-13T07:58:58;2.00;;;1.63;;
16139;SDS011;8175;49.326;12.690;2023-07-13T08:01:23;4.18;;;1.60;;
16139;SDS011;8175;49.326;12.690;2023-07-13T08:03:49;1.58;;;1.48;;
16139;SDS011;8175;49.326;12.690;2023-07-13T08:06:15;2.95;;;1.90;;
16139;SDS011;8175;49.326;12.690;2023-07-13T08:08:41;2.15;;;1.20;;
16139;SDS011;8175;49.326;12.690;2023-07-13T08:11:07;2.65;;;1.50;;
16139;SDS011;8175;49.326;12.690;2023-07-13T08:13:34;2.53;;;1.85;;
16139;SDS011;8175;49.326;12.690;2023-07-13T08:16:00;2.80;;;1.90;;
16139;SDS011;8175;49.326;12.690;2023-07-13T08:18:26;2.08;;;1.48;;
16139;SDS011;8175;49.326;12.690;2023-07-13T08:20:55;2.47;;;1.70;;
16139;SDS011;8175;49.326;12.690;2023-07-13T08:23:24;4.47;;;2.17;;
16139;SDS011;8175;49.326;12.690;2023-07-13T08:25:53;3.10;;;2.00;;
16139;SDS011;8175;49.326;12.690;2023-07-13T08:28:20;2.58;;;2.28;;
16139;SDS011;8175;49.326;12.690;2023-07-13T08:30:46;2.92;;;1.77;;
16139;SDS011;8175;49.326;12.690;2023-07-13T08:33:17;2.72;;;2.10;;
16139;SDS011;8175;49.326;12.690;2023-07-13T08:35:47;2.97;;;2.20;;
16139;SDS011;8175;49.326;12.690;2023-07-13T08:38:14;4.10;;;1.90;;
16139;SDS011;8175;49.326;12.690;2023-07-13T08:40:40;2.67;;;2.13;;
16139;SDS011;8175;49.326;12.690;2023-07-13T08:43:09;2.00;;;1.90;;
16139;SDS011;8175;49.326;12.690;2023-07-13T08:48:24;1.90;;;1.73;;
16139;SDS011;8175;49.326;12.690;2023-07-13T08:53:46;2.22;;;1.35;;
16139;SDS011;8175;49.326;12.690;2023-07-13T08:56:18;4.03;;;1.40;;
16139;SDS011;8175;49.326;12.690;2023-07-13T08:58:47;2.35;;;1.33;;
16139;SDS011;8175;49.326;12.690;2023-07-13T09:04:14;1.85;;;1.67;;
16139;SDS011;8175;49.326;12.690;2023-07-13T09:06:55;2.45;;;1.40;;
16139;SDS011;8175;49.326;12.690;2023-07-13T09:09:38;1.40;;;1.25;;
16139;SDS011;8175;49.326;12.690;2023-07-13T09:14:56;1.33;;;1.23;;
16139;SDS011;8175;49.326;12.690;2023-07-13T09:17:25;2.53;;;1.38;;
16139;SDS011;8175;49.326;12.690;2023-07-13T09:19:58;3.58;;;1.30;;
16139;SDS011;8175;49.326;12.690;2023-07-13T09:22:35;2.42;;;1.30;;
16139;SDS011;8175;49.326;12.690;2023-07-13T09:27:47;0.95;;;0.95;;
16139;SDS011;8175;49.326;12.690;2023-07-13T09:30:17;2.80;;;1.20;;
16139;SDS011;8175;49.326;12.690;2023-07-13T09:32:51;2.67;;;1.15;;
16139;SDS011;8175;49.326;12.690;2023-07-13T09:35:24;1.33;;;1.20;;
16139;SDS011;8175;49.326;12.690;2023-07-13T09:37:58;0.90;;;0.90;;
16139;SDS011;8175;49.326;12.690;2023-07-13T09:43:24;4.60;;;1.88;;
16139;SDS011;8175;49.326;12.690;2023-07-13T09:45:50;1.52;;;1.40;;
16139;SDS011;8175;49.326;12.690;2023-07-13T09:48:16;0.88;;;0.82;;
16139;SDS011;8175;49.326;12.690;2023-07-13T09:50:43;1.35;;;1.20;;
16139;SDS011;8175;49.326;12.690;2023-07-13T09:53:14;1.38;;;1.00;;
16139;SDS011;8175;49.326;12.690;2023-07-13T09:55:41;1.33;;;1.00;;
16139;SDS011;8175;49.326;12.690;2023-07-13T09:58:13;1.40;;;1.30;;
16139;SDS011;8175;49.326;12.690;2023-07-13T10:00:41;2.33;;;1.40;;
16139;SDS011;8175;49.326;12.690;2023-07-13T10:03:22;3.30;;;1.23;;
16139;SDS011;8175;49.326;12.690;2023-07-13T10:05:51;1.30;;;1.20;;
16139;SDS011;8175;49.326;12.690;2023-07-13T10:08:19;2.30;;;1.13;;
16139;SDS011;8175;49.326;12.690;2023-07-13T10:10:54;2.40;;;1.15;;
16139;SDS011;8175;49.326;12.690;2023-07-13T10:13:29;4.30;;;1.00;;
16139;SDS011;8175;49.326;12.690;2023-07-13T10:15:59;1.33;;;1.25;;
16139;SDS011;8175;49.326;12.690;2023-07-13T10:18:25;1.40;;;1.20;;
16139;SDS011;8175;49.326;12.690;2023-07-13T10:21:08;1.45;;;1.13;;
16139;SDS011;8175;49.326;12.690;2023-07-13T10:23:39;1.70;;;1.05;;
16139;SDS011;8175;49.326;12.690;2023-07-13T10:26:09;1.20;;;1.10;;
16139;SDS011;8175;49.326;12.690;2023-07-13T10:28:40;4.53;;;1.23;;
16139;SDS011;8175;49.326;12.690;2023-07-13T10:31:11;2.28;;;1.20;;
16139;SDS011;8175;49.326;12.690;2023-07-13T10:33:39;4.03;;;1.20;;
16139;SDS011;8175;49.326;12.690;2023-07-13T10:38:37;2.33;;;1.15;;
16139;SDS011;8175;49.326;12.690;2023-07-13T10:41:05;2.50;;;1.10;;
16139;SDS011;8175;49.326;12.690;2023-07-13T10:43:36;1.15;;;1.05;;
16139;SDS011;8175;49.326;12.690;2023-07-13T10:46:07;1.27;;;1.08;;
16139;SDS011;8175;49.326;12.690;2023-07-13T10:48:36;1.70;;;1.30;;
16139;SDS011;8175;49.326;12.690;2023-07-13T10:51:10;3.03;;;1.23;;
16139;SDS011;8175;49.326;12.690;2023-07-13T10:53:40;1.63;;;1.20;;
16139;SDS011;8175;49.326;12.690;2023-07-13T10:56:16;1.92;;;1.40;;
16139;SDS011;8175;49.326;12.690;2023-07-13T10:58:50;1.83;;;1.25;;
16139;SDS011;8175;49.326;12.690;2023-07-13T11:01:40;1.40;;;1.30;;
16139;SDS011;8175;49.326;12.690;2023-07-13T11:04:17;2.08;;;1.52;;
16139;SDS011;8175;49.326;12.690;2023-07-13T11:06:45;1.33;;;1.17;;
16139;SDS011;8175;49.326;12.690;2023-07-13T11:12:02;1.65;;;1.30;;
16139;SDS011;8175;49.326;12.690;2023-07-13T11:14:36;4.07;;;1.20;;
16139;SDS011;8175;49.326;12.690;2023-07-13T11:25:29;1.67;;;1.40;;
16139;SDS011;8175;49.326;12.690;2023-07-13T11:30:38;1.63;;;1.20;;
16139;SDS011;8175;49.326;12.690;2023-07-13T11:33:45;2.65;;;1.35;;
16139;SDS011;8175;49.326;12.690;2023-07-13T11:36:18;1.73;;;1.25;;
16139;SDS011;8175;49.326;12.690;2023-07-13T11:41:56;1.33;;;1.20;;
16139;SDS011;8175;49.326;12.690;2023-07-13T11:44:25;1.40;;;1.25;;
16139;SDS011;8175;49.326;12.690;2023-07-13T11:46:53;2.00;;;1.10;;
16139;SDS011;8175;49.326;12.690;2023-07-13T11:49:21;1.17;;;1.08;;
16139;SDS011;8175;49.326;12.690;2023-07-13T11:51:49;2.67;;;1.38;;
16139;SDS011;8175;49.326;12.690;2023-07-13T11:54:41;1.50;;;1.10;;
16139;SDS011;8175;49.326;12.690;2023-07-13T11:59:51;1.48;;;1.38;;
16139;SDS011;8175;49.326;12.690;2023-07-13T12:04:54;1.55;;;1.45;;
16139;SDS011;8175;49.326;12.690;2023-07-13T12:07:20;2.17;;;1.13;;
16139;SDS011;8175;49.326;12.690;2023-07-13T12:09:46;7.53;;;1.30;;
16139;SDS011;8175;49.326;12.690;2023-07-13T12:12:17;1.15;;;1.02;;
16139;SDS011;8175;49.326;12.690;2023-07-13T12:14:44;1.67;;;1.48;;
16139;SDS011;8175;49.326;12.690;2023-07-13T12:17:11;4.10;;;1.20;;
16139;SDS011;8175;49.326;12.690;2023-07-13T12:19:41;3.22;;;1.02;;
16139;SDS011;8175;49.326;12.690;2023-07-13T12:22:11;1.70;;;1.17;;
16139;SDS011;8175;49.326;12.690;2023-07-13T12:24:38;2.50;;;1.15;;
16139;SDS011;8175;49.326;12.690;2023-07-13T12:27:06;1.48;;;1.38;;
16139;SDS011;8175;49.326;12.690;2023-07-13T12:29:48;2.85;;;1.23;;
16139;SDS011;8175;49.326;12.690;2023-07-13T12:32:24;1.45;;;1.20;;
16139;SDS011;8175;49.326;12.690;2023-07-13T12:34:54;1.80;;;1.10;;
16139;SDS011;8175;49.326;12.690;2023-07-13T12:37:21;2.50;;;0.90;;
16139;SDS011;8175;49.326;12.690;2023-07-13T12:39:47;1.30;;;1.20;;
16139;SDS011;8175;49.326;12.690;2023-07-13T12:42:27;2.55;;;1.15;;
16139;SDS011;8175;49.326;12.690;2023-07-13T12:47:41;6.63;;;0.93;;
16139;SDS011;8175;49.326;12.690;2023-07-13T12:50:14;1.98;;;1.10;;
16139;SDS011;8175;49.326;12.690;2023-07-13T12:52:42;1.83;;;1.10;;
16139;SDS011;8175;49.326;12.690;2023-07-13T12:55:13;1.35;;;1.00;;
16139;SDS011;8175;49.326;12.690;2023-07-13T12:57:53;1.23;;;0.95;;
16139;SDS011;8175;49.326;12.690;2023-07-13T13:00:28;1.13;;;0.73;;
16139;SDS011;8175;49.326;12.690;2023-07-13T13:03:00;0.98;;;0.85;;
16139;SDS011;8175;49.326;12.690;2023-07-13T13:05:29;1.25;;;0.70;;
16139;SDS011;8175;49.326;12.690;2023-07-13T13:07:55;1.88;;;1.00;;
16139;SDS011;8175;49.326;12.690;2023-07-13T13:10:22;2.00;;;1.10;;
16139;SDS011;8175;49.326;12.690;2023-07-13T13:12:48;1.33;;;0.75;;
16139;SDS011;8175;49.326;12.690;2023-07-13T13:15:15;2.10;;;1.02;;
16139;SDS011;8175;49.326;12.690;2023-07-13T13:17:41;0.93;;;0.82;;
16139;SDS011;8175;49.326;12.690;2023-07-13T13:20:14;1.17;;;1.08;;
16139;SDS011;8175;49.326;12.690;2023-07-13T13:22:42;2.38;;;1.23;;
16139;SDS011;8175;49.326;12.690;2023-07-13T13:25:09;1.45;;;1.17;;
16139;SDS011;8175;49.326;12.690;2023-07-13T13:27:36;1.02;;;0.93;;
16139;SDS011;8175;49.326;12.690;2023-07-13T13:30:02;1.00;;;0.90;;
16139;SDS011;8175;49.326;12.690;2023-07-13T13:32:28;1.05;;;0.90;;
16139;SDS011;8175;49.326;12.690;2023-07-13T13:34:54;4.25;;;1.23;;
16139;SDS011;8175;49.326;12.690;2023-07-13T13:37:21;1.08;;;1.08;;
16139;SDS011;8175;49.326;12.690;2023-07-13T13:39:48;2.80;;;1.00;;
16139;SDS011;8175;49.326;12.690;2023-07-13T13:42:16;1.95;;;1.02;;
16139;SDS011;8175;49.326;12.690;2023-07-13T13:44:41;1.98;;;1.40;;
16139;SDS011;8175;49.326;12.690;2023-07-13T13:47:13;2.05;;;1.10;;
16139;SDS011;8175;49.326;12.690;2023-07-13T13:49:52;1.70;;;0.93;;
16139;SDS011;8175;49.326;12.690;2023-07-13T13:52:18;1.35;;;0.90;;
16139;SDS011;8175;49.326;12.690;2023-07-13T13:54:44;1.63;;;1.02;;
16139;SDS011;8175;49.326;12.690;2023-07-13T13:57:09;2.53;;;1.45;;
16139;SDS011;8175;49.326;12.690;2023-07-13T13:59:37;1.90;;;0.80;;
16139;SDS011;8175;49.326;12.690;2023-07-13T14:02:10;1.17;;;1.00;;
16139;SDS011;8175;49.326;12.690;2023-07-13T14:04:57;1.20;;;1.10;;
16139;SDS011;8175;49.326;12.690;2023-07-13T14:07:26;1.08;;;0.98;;
16139;SDS011;8175;49.326;12.690;2023-07-13T14:09:53;1.73;;;0.80;;
16139;SDS011;8175;49.326;12.690;2023-07-13T14:12:21;4.13;;;1.15;;
16139;SDS011;8175;49.326;12.690;2023-07-13T14:14:47;1.30;;;1.20;;
16139;SDS011;8175;49.326;12.690;2023-07-13T14:17:20;1.95;;;1.00;;
16139;SDS011;8175;49.326;12.690;2023-07-13T14:19:48;1.60;;;1.10;;
16139;SDS011;8175;49.326;12.690;2023-07-13T14:22:22;1.73;;;0.88;;
16139;SDS011;8175;49.326;12.690;2023-07-13T14:24:49;1.52;;;1.00;;
16139;SDS011;8175;49.326;12.690;2023-07-13T14:27:16;1.95;;;1.08;;
16139;SDS011;8175;49.326;12.690;2023-07-13T14:29:42;1.48;;;0.80;;
16139;SDS011;8175;49.326;12.690;2023-07-13T14:32:11;1.58;;;1.00;;
16139;SDS011;8175;49.326;12.690;2023-07-13T14:34:37;1.23;;;0.98;;
16139;SDS011;8175;49.326;12.690;2023-07-13T14:37:04;1.10;;;1.00;;
16139;SDS011;8175;49.326;12.690;2023-07-13T14:39:30;1.50;;;1.10;;
16139;SDS011;8175;49.326;12.690;2023-07-13T14:41:57;1.50;;;1.05;;
16139;SDS011;8175;49.326;12.690;2023-07-13T14:44:29;1.95;;;1.08;;
16139;SDS011;8175;49.326;12.690;2023-07-13T14:46:59;1.42;;;1.00;;
16139;SDS011;8175;49.326;12.690;2023-07-13T14:49:36;1.90;;;1.08;;
16139;SDS011;8175;49.326;12.690;2023-07-13T14:52:20;2.22;;;1.42;;
16139;SDS011;8175;49.326;12.690;2023-07-13T14:54:47;1.65;;;1.10;;
16139;SDS011;8175;49.326;12.690;2023-07-13T14:57:15;1.58;;;1.17;;
16139;SDS011;8175;49.326;12.690;2023-07-13T14:59:41;2.80;;;1.30;;
16139;SDS011;8175;49.326;12.690;2023-07-13T15:02:28;2.22;;;1.08;;
16139;SDS011;8175;49.326;12.690;2023-07-13T15:04:57;2.20;;;1.20;;
16139;SDS011;8175;49.326;12.690;2023-07-13T15:07:23;2.35;;;0.98;;
16139;SDS011;8175;49.326;12.690;2023-07-13T15:09:49;1.13;;;1.00;;
16139;SDS011;8175;49.326;12.690;2023-07-13T15:12:16;3.35;;;1.50;;
16139;SDS011;8175;49.326;12.690;2023-07-13T15:14:42;2.80;;;1.13;;
16139;SDS011;8175;49.326;12.690;2023-07-13T15:17:41;2.20;;;1.00;;
16139;SDS011;8175;49.326;12.690;2023-07-13T15:22:45;3.28;;;1.40;;
16139;SDS011;8175;49.326;12.690;2023-07-13T15:25:12;1.23;;;1.13;;
16139;SDS011;8175;49.326;12.690;2023-07-13T15:27:42;1.70;;;1.08;;
16139;SDS011;8175;49.326;12.690;2023-07-13T15:30:08;2.00;;;1.20;;
16139;SDS011;8175;49.326;12.690;2023-07-13T15:32:34;1.73;;;1.15;;
16139;SDS011;8175;49.326;12.690;2023-07-13T15:35:00;3.15;;;1.30;;
16139;SDS011;8175;49.326;12.690;2023-07-13T15:37:25;1.80;;;1.08;;
16139;SDS011;8175;49.326;12.690;2023-07-13T15:39:51;2.97;;;1.30;;
16139;SDS011;8175;49.326;12.690;2023-07-13T15:42:18;1.13;;;1.02;;
16139;SDS011;8175;49.326;12.690;2023-07-13T15:44:45;2.10;;;1.20;;
16139;SDS011;8175;49.326;12.690;2023-07-13T15:47:12;2.85;;;1.02;;
16139;SDS011;8175;49.326;12.690;2023-07-13T15:49:39;2.22;;;1.20;;
16139;SDS011;8175;49.326;12.690;2023-07-13T15:52:16;0.95;;;0.85;;
16139;SDS011;8175;49.326;12.690;2023-07-13T15:54:44;1.38;;;1.20;;
16139;SDS011;8175;49.326;12.690;2023-07-13T15:57:12;1.10;;;0.85;;
16139;SDS011;8175;49.326;12.690;2023-07-13T15:59:38;1.27;;;1.00;;
16139;SDS011;8175;49.326;12.690;2023-07-13T16:02:11;2.38;;;1.40;;
16139;SDS011;8175;49.326;12.690;2023-07-13T16:04:41;1.83;;;1.23;;
16139;SDS011;8175;49.326;12.690;2023-07-13T16:07:09;1.10;;;1.00;;
16139;SDS011;8175;49.326;12.690;2023-07-13T16:09:40;2.60;;;1.17;;
16139;SDS011;8175;49.326;12.690;2023-07-13T16:12:10;2.05;;;1.17;;
16139;SDS011;8175;49.326;12.690;2023-07-13T16:14:37;2.00;;;1.27;;
16139;SDS011;8175;49.326;12.690;2023-07-13T16:17:04;2.40;;;1.38;;
16139;SDS011;8175;49.326;12.690;2023-07-13T16:19:31;1.02;;;0.90;;
16139;SDS011;8175;49.326;12.690;2023-07-13T16:21:58;1.98;;;1.23;;
16139;SDS011;8175;49.326;12.690;2023-07-13T16:24:25;4.47;;;0.98;;
16139;SDS011;8175;49.326;12.690;2023-07-13T16:26:52;1.65;;;1.40;;
16139;SDS011;8175;49.326;12.690;2023-07-13T16:29:25;2.15;;;1.55;;
16139;SDS011;8175;49.326;12.690;2023-07-13T16:32:02;1.48;;;1.10;;
16139;SDS011;8175;49.326;12.690;2023-07-13T16:34:33;1.83;;;1.23;;
16139;SDS011;8175;49.326;12.690;2023-07-13T16:37:00;3.38;;;1.27;;
16139;SDS011;8175;49.326;12.690;2023-07-13T16:39:30;2.55;;;1.30;;
16139;SDS011;8175;49.326;12.690;2023-07-13T16:41:57;1.60;;;1.30;;
16139;SDS011;8175;49.326;12.690;2023-07-13T16:44:23;1.27;;;1.10;;
16139;SDS011;8175;49.326;12.690;2023-07-13T16:46:52;3.00;;;1.17;;
16139;SDS011;8175;49.326;12.690;2023-07-13T16:49:36;4.82;;;1.38;;
16139;SDS011;8175;49.326;12.690;2023-07-13T16:52:03;1.30;;;1.20;;
16139;SDS011;8175;49.326;12.690;2023-07-13T16:54:30;1.65;;;1.40;;
16139;SDS011;8175;49.326;12.690;2023-07-13T16:56:58;1.02;;;1.02;;
16139;SDS011;8175;49.326;12.690;2023-07-13T16:59:28;1.15;;;1.05;;
16139;SDS011;8175;49.326;12.690;2023-07-13T17:01:57;1.08;;;0.90;;
16139;SDS011;8175;49.326;12.690;2023-07-13T17:04:25;1.20;;;1.05;;
16139;SDS011;8175;49.326;12.690;2023-07-13T17:06:52;4.47;;;1.10;;
16139;SDS011;8175;49.326;12.690;2023-07-13T17:09:20;1.73;;;1.20;;
16139;SDS011;8175;49.326;12.690;2023-07-13T17:11:48;1.63;;;1.52;;
16139;SDS011;8175;49.326;12.690;2023-07-13T17:16:47;2.10;;;1.20;;
16139;SDS011;8175;49.326;12.690;2023-07-13T17:19:18;1.75;;;1.40;;
16139;SDS011;8175;49.326;12.690;2023-07-13T17:21:48;2.42;;;1.30;;
16139;SDS011;8175;49.326;12.690;2023-07-13T17:24:17;3.33;;;1.15;;
16139;SDS011;8175;49.326;12.690;2023-07-13T17:26:49;2.13;;;1.30;;
16139;SDS011;8175;49.326;12.690;2023-07-13T17:29:16;1.30;;;1.20;;
16139;SDS011;8175;49.326;12.690;2023-07-13T17:31:42;2.08;;;1.38;;
16139;SDS011;8175;49.326;12.690;2023-07-13T17:34:10;1.65;;;1.52;;
16139;SDS011;8175;49.326;12.690;2023-07-13T17:36:37;1.90;;;1.65;;
16139;SDS011;8175;49.326;12.690;2023-07-13T17:39:05;1.65;;;1.30;;
16139;SDS011;8175;49.326;12.690;2023-07-13T17:41:39;1.90;;;1.80;;
16139;SDS011;8175;49.326;12.690;2023-07-13T17:44:07;2.90;;;1.55;;
16139;SDS011;8175;49.326;12.690;2023-07-13T17:46:37;1.98;;;1.27;;
16139;SDS011;8175;49.326;12.690;2023-07-13T17:49:04;2.40;;;1.30;;
16139;SDS011;8175;49.326;12.690;2023-07-13T17:51:31;1.65;;;1.25;;
16139;SDS011;8175;49.326;12.690;2023-07-13T17:53:57;2.35;;;1.20;;
16139;SDS011;8175;49.326;12.690;2023-07-13T17:56:23;1.95;;;1.40;;
16139;SDS011;8175;49.326;12.690;2023-07-13T17:58:50;2.92;;;1.60;;
16139;SDS011;8175;49.326;12.690;2023-07-13T18:01:17;3.17;;;1.67;;
16139;SDS011;8175;49.326;12.690;2023-07-13T18:03:45;1.80;;;1.08;;
16139;SDS011;8175;49.326;12.690;2023-07-13T18:06:47;1.75;;;1.40;;
16139;SDS011;8175;49.326;12.690;2023-07-13T18:09:15;1.88;;;1.45;;
16139;SDS011;8175;49.326;12.690;2023-07-13T18:11:43;1.38;;;1.20;;
16139;SDS011;8175;49.326;12.690;2023-07-13T18:14:08;3.47;;;1.65;;
16139;SDS011;8175;49.326;12.690;2023-07-13T18:16:35;2.53;;;1.05;;
16139;SDS011;8175;49.326;12.690;2023-07-13T18:19:02;3.25;;;1.50;;
16139;SDS011;8175;49.326;12.690;2023-07-13T18:21:33;2.50;;;1.40;;
16139;SDS011;8175;49.326;12.690;2023-07-13T18:23:59;2.17;;;1.42;;
16139;SDS011;8175;49.326;12.690;2023-07-13T18:26:26;2.67;;;1.10;;
16139;SDS011;8175;49.326;12.690;2023-07-13T18:28:52;1.95;;;1.10;;
16139;SDS011;8175;49.326;12.690;2023-07-13T18:31:19;2.07;;;1.20;;
16139;SDS011;8175;49.326;12.690;2023-07-13T18:33:48;1.77;;;1.30;;
16139;SDS011;8175;49.326;12.690;2023-07-13T18:36:17;1.30;;;1.20;;
16139;SDS011;8175;49.326;12.690;2023-07-13T18:38:43;1.40;;;1.30;;
16139;SDS011;8175;49.326;12.690;2023-07-13T18:41:14;2.47;;;1.40;;
16139;SDS011;8175;49.326;12.690;2023-07-13T18:43:43;2.30;;;1.53;;
16139;SDS011;8175;49.326;12.690;2023-07-13T18:46:31;1.50;;;1.03;;
16139;SDS011;8175;49.326;12.690;2023-07-13T18:48:57;2.07;;;1.40;;
16139;SDS011;8175;49.326;12.690;2023-07-13T18:51:24;2.13;;;1.70;;